Time;durP1;ratioP1;P1;durP2;ratioP2;P2;SDS_P1;SDS_P2;PMS_P1;PMS_P2;Temp;Humidity;BMP_temperature;BMP_pressure;BME280_temperature;BME280_humidity;BME280_pressure;Samples;Min_cycle;Max_cycle;Signal;HPM_P1;HPM_P2
2023/02/17 00:01:14;;;;;;;15.63;8.30;;;11.70;99.90;;;;;;5057062;28;20178;-64
2023/02/17 00:03:40;;;;;;;8.57;7.87;;;11.70;99.90;;;;;;5057779;28;20194;-63
2023/02/17 00:06:10;;;;;;;7.20;6.70;;;11.70;99.90;;;;;;5057961;28;20194;-63
2023/02/17 00:08:36;;;;;;;8.33;7.63;;;11.70;99.90;;;;;;5058135;28;20202;-63
2023/02/17 00:11:02;;;;;;;11.47;10.63;;;11.80;99.90;;;;;;5057416;28;20225;-64
2023/02/17 00:13:28;;;;;;;7.97;7.37;;;11.70;99.90;;;;;;5056540;28;20171;-63
2023/02/17 00:15:53;;;;;;;7.97;7.27;;;11.80;99.90;;;;;;5057553;28;20346;-63
2023/02/17 00:18:19;;;;;;;7.40;6.90;;;11.70;99.90;;;;;;5057808;28;20174;-63
2023/02/17 00:20:44;;;;;;;7.83;7.13;;;11.70;99.90;;;;;;5057439;28;20670;-63
2023/02/17 00:23:10;;;;;;;9.10;8.20;;;11.70;99.90;;;;;;5057571;28;20253;-63
2023/02/17 00:25:37;;;;;;;9.50;7.83;;;11.70;99.90;;;;;;5057623;28;20194;-64
2023/02/17 00:28:03;;;;;;;8.27;7.47;;;11.70;99.90;;;;;;5057410;28;20648;-63
2023/02/17 00:30:28;;;;;;;8.10;7.33;;;11.70;99.90;;;;;;5057454;28;20249;-64
2023/02/17 00:32:54;;;;;;;9.20;8.50;;;11.70;99.90;;;;;;5057622;28;20171;-63
2023/02/17 00:35:19;;;;;;;8.30;7.50;;;11.70;99.90;;;;;;5057762;28;20633;-63
2023/02/17 00:37:45;;;;;;;8.80;7.90;;;11.70;99.90;;;;;;5057608;28;20224;-64
2023/02/17 00:40:14;;;;;;;7.53;6.93;;;11.60;99.90;;;;;;5057196;28;20208;-64
2023/02/17 00:42:40;;;;;;;7.70;7.00;;;11.60;99.90;;;;;;5057614;28;20245;-64
2023/02/17 00:45:06;;;;;;;8.10;7.30;;;11.60;99.90;;;;;;5057110;28;20294;-63
2023/02/17 00:47:32;;;;;;;8.47;7.73;;;11.60;99.90;;;;;;5057004;28;20254;-64
2023/02/17 00:49:57;;;;;;;8.27;7.50;;;11.60;99.90;;;;;;5053785;28;20685;-63
2023/02/17 00:52:23;;;;;;;7.63;6.93;;;11.60;99.90;;;;;;5054339;28;20202;-64
2023/02/17 00:54:48;;;;;;;8.03;7.23;;;11.60;99.90;;;;;;5054177;28;20258;-64
2023/02/17 00:57:14;;;;;;;8.33;7.57;;;11.70;99.90;;;;;;5054150;28;20195;-64
2023/02/17 00:59:39;;;;;;;7.27;6.67;;;11.60;99.90;;;;;;5053991;28;20273;-64
2023/02/17 01:02:05;;;;;;;8.30;7.60;;;11.60;99.90;;;;;;5053445;28;20190;-64
2023/02/17 01:04:31;;;;;;;7.90;7.20;;;11.60;99.90;;;;;;5054189;28;20269;-63
2023/02/17 01:06:56;;;;;;;7.53;6.93;;;11.60;99.90;;;;;;5054214;28;20183;-63
2023/02/17 01:09:22;;;;;;;7.93;7.13;;;11.60;99.90;;;;;;5053749;28;20179;-63
2023/02/17 01:11:48;;;;;;;8.27;7.43;;;11.60;99.90;;;;;;5054314;28;20253;-63
2023/02/17 01:14:13;;;;;;;10.00;9.23;;;11.60;99.90;;;;;;5054233;28;20170;-63
2023/02/17 01:16:43;;;;;;;8.23;7.73;;;11.60;99.90;;;;;;5053904;28;20195;-63
2023/02/17 01:19:13;;;;;;;8.70;7.77;;;11.60;99.90;;;;;;5052340;28;20214;-64
2023/02/17 01:21:39;;;;;;;8.63;7.63;;;11.60;99.90;;;;;;5053764;28;20271;-64
2023/02/17 01:24:07;;;;;;;6.93;6.40;;;11.60;99.90;;;;;;5053390;28;20208;-64
2023/02/17 01:26:33;;;;;;;8.17;7.00;;;11.60;99.90;;;;;;5053692;28;20719;-64
2023/02/17 01:28:59;;;;;;;7.53;6.93;;;11.60;99.90;;;;;;5052346;28;20171;-64
2023/02/17 01:31:26;;;;;;;7.93;7.33;;;11.60;99.90;;;;;;5053278;28;20163;-64
2023/02/17 01:33:56;;;;;;;7.83;7.33;;;11.60;99.90;;;;;;5053342;28;20257;-64
2023/02/17 01:36:22;;;;;;;7.90;7.10;;;11.60;99.90;;;;;;5053501;28;20191;-64
2023/02/17 01:38:48;;;;;;;7.50;6.90;;;11.60;99.90;;;;;;5053384;28;20273;-64
2023/02/17 01:41:15;;;;;;;7.37;6.73;;;11.60;99.90;;;;;;5053104;28;20181;-64
2023/02/17 01:43:42;;;;;;;7.13;6.53;;;11.60;99.90;;;;;;5053335;28;20195;-64
2023/02/17 01:46:08;;;;;;;7.83;7.23;;;11.60;99.90;;;;;;5052811;28;20252;-64
2023/02/17 01:48:45;;;;;;;8.07;7.27;;;11.60;99.90;;;;;;5053276;28;20194;-64
2023/02/17 01:51:25;;;;;;;8.03;7.30;;;11.60;99.90;;;;;;5052907;28;20173;-64
2023/02/17 01:54:07;;;;;;;7.07;6.57;;;11.60;99.90;;;;;;5053067;28;20192;-64
2023/02/17 01:56:37;;;;;;;8.47;7.87;;;11.60;99.90;;;;;;5053153;28;20207;-64
2023/02/17 01:59:07;;;;;;;7.53;6.93;;;11.60;99.90;;;;;;5052989;28;20202;-64
2023/02/17 02:01:34;;;;;;;8.30;7.57;;;11.60;99.90;;;;;;5052142;28;20171;-64
2023/02/17 02:04:01;;;;;;;7.33;6.67;;;11.60;99.90;;;;;;5052632;28;20198;-64
2023/02/17 02:06:28;;;;;;;9.50;7.93;;;11.60;99.90;;;;;;5052849;28;20187;-64
2023/02/17 02:09:07;;;;;;;9.33;8.50;;;11.60;99.90;;;;;;5052766;28;20195;-64
2023/02/17 02:11:34;;;;;;;8.87;8.13;;;11.60;99.90;;;;;;5052798;28;20304;-64
2023/02/17 02:14:03;;;;;;;8.27;7.77;;;11.60;99.90;;;;;;5052578;28;20179;-63
2023/02/17 02:17:00;;;;;;;9.17;8.47;;;11.60;99.90;;;;;;5052652;28;20277;-64
2023/02/17 02:19:37;;;;;;;9.07;8.17;;;11.60;99.90;;;;;;5028863;28;20191;-64
2023/02/17 02:22:17;;;;;;;8.20;7.53;;;11.60;99.90;;;;;;5052395;28;20632;-64
2023/02/17 02:25:07;;;;;;;8.07;7.30;;;11.60;99.90;;;;;;5052500;28;20202;-64
2023/02/17 02:28:11;;;;;;;8.70;7.90;;;11.60;99.90;;;;;;5052873;28;20632;-64
2023/02/17 02:30:55;;;;;;;9.13;8.33;;;11.50;99.90;;;;;;5020818;28;20186;-64
2023/02/17 02:33:33;;;;;;;8.13;7.43;;;11.60;99.90;;;;;;5052390;28;20185;-64
2023/02/17 02:36:32;;;;;;;8.93;8.07;;;11.50;99.90;;;;;;5052029;28;20200;-63
2023/02/17 02:39:08;;;;;;;8.70;7.90;;;11.50;99.90;;;;;;4997751;28;20193;-64
2023/02/17 02:41:42;;;;;;;8.63;7.90;;;11.50;99.90;;;;;;5052177;28;20183;-64
2023/02/17 02:44:11;;;;;;;8.53;7.77;;;11.50;99.90;;;;;;5051947;28;20598;-64
2023/02/17 02:46:37;;;;;;;8.07;7.37;;;11.50;99.90;;;;;;5051977;28;20217;-64
2023/02/17 02:49:04;;;;;;;8.47;7.77;;;11.50;99.90;;;;;;5052270;28;20706;-64
2023/02/17 02:51:52;;;;;;;9.43;8.53;;;11.50;99.90;;;;;;5051910;28;20270;-64
2023/02/17 02:54:51;;;;;;;9.30;8.13;;;11.50;99.90;;;;;;5050994;28;20723;-64
2023/02/17 02:57:26;;;;;;;8.50;7.80;;;11.50;99.90;;;;;;5051752;28;20204;-64
2023/02/17 03:00:11;;;;;;;9.67;7.97;;;11.50;99.90;;;;;;5051673;28;20185;-63
2023/02/17 03:03:08;;;;;;;8.43;7.73;;;11.50;99.90;;;;;;5051943;28;20212;-64
2023/02/17 03:05:41;;;;;;;7.23;6.47;;;11.50;99.90;;;;;;5051803;28;20190;-64
2023/02/17 03:08:15;;;;;;;7.80;7.10;;;11.50;99.90;;;;;;5051523;28;20175;-63
2023/02/17 03:10:49;;;;;;;7.60;6.90;;;11.50;99.90;;;;;;5051503;28;20178;-64
2023/02/17 03:13:16;;;;;;;8.20;7.50;;;11.60;99.90;;;;;;5051193;28;20174;-63
2023/02/17 03:15:42;;;;;;;7.27;6.67;;;11.50;99.90;;;;;;5051591;28;20220;-64
2023/02/17 03:18:07;;;;;;;7.97;7.20;;;11.50;99.90;;;;;;5051613;28;20564;-64
2023/02/17 03:20:37;;;;;;;8.73;8.03;;;11.50;99.90;;;;;;5051318;28;20246;-63
2023/02/17 03:23:05;;;;;;;8.57;7.77;;;11.50;99.90;;;;;;5051411;28;20158;-63
2023/02/17 03:25:30;;;;;;;9.23;8.43;;;11.60;99.90;;;;;;5051461;28;20191;-64
2023/02/17 03:27:56;;;;;;;8.43;7.67;;;11.50;99.90;;;;;;5051352;28;20174;-64
2023/02/17 03:30:22;;;;;;;8.23;7.63;;;11.50;99.90;;;;;;5051274;28;20175;-64
2023/02/17 03:32:48;;;;;;;7.30;6.70;;;11.50;99.90;;;;;;5051519;28;20644;-64
2023/02/17 03:35:13;;;;;;;8.40;7.70;;;11.50;99.90;;;;;;5051403;28;20183;-64
2023/02/17 03:37:39;;;;;;;9.13;8.43;;;11.50;99.90;;;;;;5051460;28;20589;-64
2023/02/17 03:40:06;;;;;;;8.47;7.60;;;11.50;99.90;;;;;;5050879;28;20181;-64
2023/02/17 03:42:32;;;;;;;6.83;6.43;;;11.60;99.90;;;;;;5051420;28;20175;-64
2023/02/17 03:44:58;;;;;;;8.07;7.37;;;11.60;99.90;;;;;;5051275;28;20554;-64
2023/02/17 03:47:23;;;;;;;8.17;7.40;;;11.60;99.90;;;;;;5051166;28;20211;-64
2023/02/17 03:49:50;;;;;;;7.70;7.10;;;11.60;99.90;;;;;;5050975;28;20249;-64
2023/02/17 03:52:16;;;;;;;7.67;7.00;;;11.60;99.90;;;;;;5051208;28;20166;-64
2023/02/17 03:54:41;;;;;;;9.87;9.03;;;11.60;99.90;;;;;;5051344;28;20167;-63
2023/02/17 03:57:07;;;;;;;9.90;7.70;;;11.60;99.90;;;;;;5051157;28;20237;-64
2023/02/17 03:59:32;;;;;;;8.00;7.30;;;11.60;99.90;;;;;;5050941;28;20179;-64
2023/02/17 04:01:58;;;;;;;7.57;7.00;;;11.60;99.90;;;;;;5049808;28;20186;-64
2023/02/17 04:04:24;;;;;;;9.13;8.33;;;11.60;99.90;;;;;;5051307;28;20209;-64
2023/02/17 04:06:49;;;;;;;9.53;8.83;;;11.60;99.90;;;;;;5050985;28;20198;-64
2023/02/17 04:09:15;;;;;;;10.00;9.20;;;11.60;99.90;;;;;;5050851;28;20202;-63
2023/02/17 04:11:41;;;;;;;8.67;7.97;;;11.60;99.90;;;;;;5051041;28;20636;-64
2023/02/17 04:14:06;;;;;;;8.70;8.00;;;11.60;99.90;;;;;;5050915;28;20221;-63
2023/02/17 04:16:32;;;;;;;8.47;7.73;;;11.60;99.90;;;;;;5051036;28;20261;-63
2023/02/17 04:18:57;;;;;;;8.97;8.37;;;11.60;99.90;;;;;;5050974;28;20170;-64
2023/02/17 04:21:23;;;;;;;9.17;8.37;;;11.70;99.90;;;;;;5050680;28;20544;-64
2023/02/17 04:23:48;;;;;;;7.70;7.17;;;11.60;99.90;;;;;;5050877;28;20202;-64
2023/02/17 04:26:14;;;;;;;8.63;8.03;;;11.70;99.90;;;;;;5054433;28;20266;-64
2023/02/17 04:28:41;;;;;;;6.93;6.40;;;11.70;99.90;;;;;;5054773;28;20694;-64
2023/02/17 04:31:07;;;;;;;7.63;7.03;;;11.70;99.90;;;;;;5054634;28;20614;-64
2023/02/17 04:33:33;;;;;;;7.83;7.27;;;11.70;99.90;;;;;;5054854;28;20198;-63
2023/02/17 04:35:59;;;;;;;8.37;7.77;;;11.70;99.90;;;;;;5054325;28;20563;-63
2023/02/17 04:38:29;;;;;;;7.60;7.13;;;11.70;99.90;;;;;;5054703;28;20657;-64
2023/02/17 04:40:56;;;;;;;8.83;8.13;;;11.70;99.90;;;;;;5054161;28;20256;-64
2023/02/17 04:43:23;;;;;;;8.30;7.50;;;11.70;99.90;;;;;;5054419;28;20620;-64
2023/02/17 04:45:48;;;;;;;7.73;7.13;;;11.70;99.90;;;;;;5054241;28;20707;-64
2023/02/17 04:48:14;;;;;;;7.10;6.50;;;11.80;99.90;;;;;;5054235;28;20167;-64
2023/02/17 04:50:40;;;;;;;8.37;7.67;;;11.80;99.90;;;;;;5053991;28;20179;-64
2023/02/17 04:53:06;;;;;;;7.70;7.10;;;11.70;99.90;;;;;;5054199;28;20174;-64
2023/02/17 04:55:32;;;;;;;8.67;7.33;;;11.70;99.90;;;;;;5054227;28;20187;-64
2023/02/17 04:57:58;;;;;;;7.17;6.57;;;11.70;99.90;;;;;;5054066;28;20214;-64
2023/02/17 05:00:23;;;;;;;8.07;7.30;;;11.80;99.90;;;;;;5052794;28;20225;-64
2023/02/17 05:02:49;;;;;;;7.73;7.03;;;11.80;99.90;;;;;;5054033;28;20648;-63
2023/02/17 05:05:17;;;;;;;6.87;6.30;;;11.80;99.90;;;;;;5053885;28;20203;-64
2023/02/17 05:07:44;;;;;;;7.70;7.00;;;11.80;99.90;;;;;;5054086;28;20159;-64
2023/02/17 05:10:11;;;;;;;8.07;7.30;;;11.80;99.90;;;;;;5053441;28;20171;-64
2023/02/17 05:12:37;;;;;;;7.47;6.97;;;11.80;99.90;;;;;;5053962;28;20178;-64
2023/02/17 05:15:03;;;;;;;8.33;7.53;;;11.80;99.90;;;;;;5054112;28;20501;-64
2023/02/17 05:17:29;;;;;;;9.23;8.63;;;11.80;99.90;;;;;;5053862;28;20191;-63
2023/02/17 05:19:54;;;;;;;9.00;8.20;;;11.80;99.90;;;;;;5053326;28;20171;-63
2023/02/17 05:22:20;;;;;;;8.53;7.83;;;11.80;99.90;;;;;;5053684;28;20261;-63
2023/02/17 05:24:45;;;;;;;7.47;6.97;;;11.80;99.90;;;;;;5053612;28;20569;-64
2023/02/17 05:27:11;;;;;;;7.53;6.93;;;11.80;99.90;;;;;;5053652;28;20465;-64
2023/02/17 05:29:36;;;;;;;8.87;8.17;;;11.80;99.90;;;;;;5053463;28;20166;-64
2023/02/17 05:32:02;;;;;;;8.17;7.57;;;11.80;99.90;;;;;;5053296;28;20692;-64
2023/02/17 05:34:28;;;;;;;8.07;7.47;;;11.80;99.90;;;;;;5053436;28;20171;-64
2023/02/17 05:36:53;;;;;;;8.00;7.40;;;11.70;99.90;;;;;;5052866;28;20472;-64
2023/02/17 05:39:19;;;;;;;7.77;7.10;;;11.80;99.90;;;;;;5053224;28;20171;-63
2023/02/17 05:41:44;;;;;;;7.73;7.13;;;11.80;99.90;;;;;;5053353;28;20174;-64
2023/02/17 05:44:10;;;;;;;9.37;8.77;;;11.80;99.90;;;;;;5053119;28;20249;-63
2023/02/17 05:46:36;;;;;;;8.20;7.60;;;11.80;99.90;;;;;;5053321;28;20613;-63
2023/02/17 05:49:01;;;;;;;7.73;7.07;;;11.80;99.90;;;;;;5053273;28;20199;-63
2023/02/17 05:51:27;;;;;;;7.17;6.67;;;11.80;99.90;;;;;;5052888;28;20171;-63
2023/02/17 05:53:53;;;;;;;7.27;6.67;;;11.80;99.90;;;;;;5053096;28;20174;-63
2023/02/17 05:56:19;;;;;;;7.73;6.93;;;11.80;99.90;;;;;;5052982;28;20187;-63
2023/02/17 05:58:44;;;;;;;8.00;7.23;;;11.80;99.90;;;;;;5053026;28;20597;-63
2023/02/17 06:01:11;;;;;;;6.83;6.33;;;11.80;99.90;;;;;;5051685;28;20261;-64
2023/02/17 06:03:37;;;;;;;7.83;7.23;;;11.80;99.90;;;;;;5052985;28;20281;-64
2023/02/17 06:06:03;;;;;;;6.93;6.43;;;11.80;99.90;;;;;;5052724;28;20262;-64
2023/02/17 06:08:29;;;;;;;8.07;7.37;;;11.80;99.90;;;;;;5052939;28;20166;-64
2023/02/17 06:10:54;;;;;;;7.30;6.80;;;11.80;99.90;;;;;;5052517;28;20526;-64
2023/02/17 06:13:20;;;;;;;7.73;7.03;;;11.80;99.90;;;;;;5052845;28;20223;-64
2023/02/17 06:15:46;;;;;;;8.27;7.67;;;11.80;99.90;;;;;;5052598;28;20187;-64
2023/02/17 06:18:12;;;;;;;7.37;6.87;;;11.90;99.90;;;;;;5052426;28;20171;-64
2023/02/17 06:20:38;;;;;;;8.10;7.50;;;11.90;99.90;;;;;;5052267;28;20167;-64
2023/02/17 06:23:03;;;;;;;7.37;6.87;;;11.90;99.90;;;;;;5052584;28;20213;-63
2023/02/17 06:25:29;;;;;;;7.33;6.83;;;11.90;99.90;;;;;;5052532;28;20731;-64
2023/02/17 06:27:54;;;;;;;7.60;7.03;;;11.90;99.90;;;;;;5052401;28;20167;-64
2023/02/17 06:30:20;;;;;;;6.90;6.40;;;11.90;99.90;;;;;;5052070;28;20216;-64
2023/02/17 06:32:46;;;;;;;7.57;6.80;;;11.90;99.90;;;;;;5052399;28;20250;-64
2023/02/17 06:35:12;;;;;;;9.00;6.80;;;11.90;99.90;;;;;;5052270;28;20260;-64
2023/02/17 06:37:38;;;;;;;8.07;7.47;;;11.90;99.90;;;;;;5052418;28;20174;-64
2023/02/17 06:40:04;;;;;;;7.30;6.70;;;11.90;99.90;;;;;;5051838;28;20206;-64
2023/02/17 06:42:29;;;;;;;7.20;6.63;;;11.90;99.90;;;;;;5052285;28;20171;-64
2023/02/17 06:44:55;;;;;;;7.03;6.43;;;11.90;99.90;;;;;;5052009;28;20198;-64
2023/02/17 06:47:21;;;;;;;9.03;8.17;;;11.90;99.90;;;;;;5051132;28;20206;-64
2023/02/17 06:49:46;;;;;;;7.20;6.70;;;11.90;99.90;;;;;;5051809;28;20174;-64
2023/02/17 06:52:12;;;;;;;10.40;9.50;;;12.00;99.90;;;;;;5051853;28;20535;-64
2023/02/17 06:54:37;;;;;;;6.73;6.30;;;11.90;99.90;;;;;;5052019;28;20250;-64
2023/02/17 06:57:03;;;;;;;8.33;7.30;;;11.90;99.90;;;;;;5051840;28;20720;-64
2023/02/17 06:59:31;;;;;;;7.63;6.93;;;11.90;99.90;;;;;;5051781;28;20175;-64
2023/02/17 07:01:57;;;;;;;7.80;7.10;;;11.90;99.90;;;;;;5050924;28;20186;-64
2023/02/17 07:04:23;;;;;;;6.87;6.37;;;12.00;99.90;;;;;;5051788;28;20210;-64
2023/02/17 07:06:48;;;;;;;7.97;7.27;;;12.00;99.90;;;;;;5051687;28;20313;-64
2023/02/17 07:09:14;;;;;;;9.27;8.67;;;11.90;99.90;;;;;;5051587;28;20166;-64
2023/02/17 07:11:40;;;;;;;9.97;9.00;;;11.90;99.90;;;;;;5052078;28;20175;-64
2023/02/17 07:14:06;;;;;;;9.00;8.27;;;11.90;99.90;;;;;;5051600;28;20169;-64
2023/02/17 07:16:32;;;;;;;8.73;7.10;;;11.90;99.90;;;;;;5051685;28;20191;-64
2023/02/17 07:18:58;;;;;;;7.10;6.60;;;12.00;99.90;;;;;;5051540;28;20220;-64
2023/02/17 07:21:23;;;;;;;7.47;6.80;;;12.00;99.90;;;;;;5051365;28;20202;-64
2023/02/17 07:23:49;;;;;;;8.40;7.60;;;12.00;99.90;;;;;;5051466;28;20234;-64
2023/02/17 07:26:15;;;;;;;7.37;6.73;;;12.10;99.90;;;;;;5051371;28;20199;-64
2023/02/17 07:28:41;;;;;;;6.83;6.33;;;12.10;99.90;;;;;;5051631;28;20269;-64
2023/02/17 07:31:08;;;;;;;6.47;6.07;;;12.10;99.90;;;;;;5051144;28;20535;-64
2023/02/17 07:33:35;;;;;;;7.83;7.23;;;12.10;99.90;;;;;;5051597;28;20179;-64
2023/02/17 07:36:05;;;;;;;7.27;6.77;;;12.10;99.90;;;;;;5051226;28;20194;-64
2023/02/17 07:38:31;;;;;;;8.43;7.73;;;12.10;99.90;;;;;;5051590;28;20188;-64
2023/02/17 07:41:02;;;;;;;8.33;7.63;;;12.10;99.90;;;;;;5051105;28;20174;-64
2023/02/17 07:43:28;;;;;;;7.80;7.30;;;12.20;99.90;;;;;;5051461;28;20673;-64
2023/02/17 07:45:54;;;;;;;7.97;7.30;;;12.20;99.90;;;;;;5125151;22;20224;-64
2023/02/17 07:48:19;;;;;;;7.07;6.60;;;12.20;99.90;;;;;;5051241;28;20183;-64
2023/02/17 07:50:45;;;;;;;7.43;6.83;;;12.20;99.90;;;;;;5051031;28;20170;-65
2023/02/17 07:53:10;;;;;;;8.10;6.53;;;12.30;99.90;;;;;;5051206;28;20167;-64
2023/02/17 07:55:36;;;;;;;7.23;6.73;;;12.30;99.90;;;;;;5051227;28;20201;-65
2023/02/17 07:58:01;;;;;;;8.10;7.23;;;12.30;99.90;;;;;;5051248;28;20174;-64
2023/02/17 08:00:27;;;;;;;7.20;6.70;;;12.40;99.90;;;;;;5054252;28;20167;-64
2023/02/17 08:02:53;;;;;;;7.77;7.00;;;12.40;99.90;;;;;;5055106;28;20178;-64
2023/02/17 08:05:18;;;;;;;9.53;8.90;;;12.50;99.90;;;;;;5055092;28;20283;-65
2023/02/17 08:07:44;;;;;;;6.93;6.43;;;12.50;99.90;;;;;;5055121;28;20194;-65
2023/02/17 08:15:40;;;;;;;6.60;6.23;;;12.60;99.90;;;;;;5055342;28;20205;-65
2023/02/17 08:18:05;;;;;;;7.33;6.73;;;12.60;99.90;;;;;;5054819;28;20601;-65
2023/02/17 08:20:31;;;;;;;6.90;6.40;;;12.60;99.90;;;;;;5054558;28;20179;-65
2023/02/17 08:22:57;;;;;;;8.10;7.60;;;12.60;99.90;;;;;;5053592;28;20178;-65
2023/02/17 08:25:22;;;;;;;7.60;7.00;;;12.70;99.90;;;;;;5054778;28;20241;-65
2023/02/17 08:27:48;;;;;;;6.97;6.37;;;12.70;99.90;;;;;;5054772;28;20191;-65
2023/02/17 08:30:13;;;;;;;7.93;7.13;;;12.70;99.90;;;;;;5054117;28;20167;-64
2023/02/17 08:32:39;;;;;;;7.57;6.93;;;12.80;99.90;;;;;;5054968;28;20167;-65
2023/02/17 08:35:05;;;;;;;7.47;6.97;;;12.80;99.90;;;;;;5054520;28;20305;-65
2023/02/17 08:37:31;;;;;;;9.43;7.83;;;12.80;99.90;;;;;;5054787;28;20591;-65
2023/02/17 08:40:00;;;;;;;6.93;6.53;;;12.90;99.90;;;;;;5054278;28;20171;-65
2023/02/17 08:42:26;;;;;;;7.07;6.60;;;12.90;99.90;;;;;;5054484;28;20181;-65
2023/02/17 08:44:52;;;;;;;6.60;6.00;;;12.90;99.90;;;;;;5054386;28;20586;-66
2023/02/17 08:47:17;;;;;;;8.30;6.70;;;13.00;99.90;;;;;;5054447;28;20203;-65
2023/02/17 08:49:43;;;;;;;7.27;5.90;;;13.10;99.90;;;;;;5054165;28;20167;-66
2023/02/17 08:52:09;;;;;;;6.57;6.07;;;13.10;99.90;;;;;;5054140;28;20269;-66
2023/02/17 08:54:34;;;;;;;6.63;6.13;;;13.10;99.90;;;;;;5054310;28;20181;-66
2023/02/17 08:57:00;;;;;;;7.30;6.77;;;13.10;99.90;;;;;;5054089;28;20593;-65
2023/02/17 08:59:25;;;;;;;6.77;6.17;;;13.20;99.90;;;;;;5054180;28;20225;-65
2023/02/17 09:01:51;;;;;;;6.83;6.23;;;13.20;99.90;;;;;;5053391;28;20198;-65
2023/02/17 09:04:17;;;;;;;6.07;5.67;;;13.30;99.90;;;;;;5053869;28;20198;-66
2023/02/17 09:06:48;;;;;;;6.50;6.00;;;13.40;99.90;;;;;;5054215;28;20190;-65
2023/02/17 09:09:16;;;;;;;6.80;6.30;;;13.50;99.90;;;;;;5053719;28;20171;-65
2023/02/17 09:11:42;;;;;;;7.20;6.60;;;13.50;99.90;;;;;;5053021;28;20538;-65
2023/02/17 09:14:08;;;;;;;6.20;5.67;;;13.60;99.90;;;;;;5054052;28;20183;-65
2023/02/17 09:16:34;;;;;;;7.93;7.43;;;13.70;99.90;;;;;;5054166;28;20199;-65
2023/02/17 09:19:00;;;;;;;6.40;5.80;;;13.80;99.90;;;;;;5053833;28;20175;-66
2023/02/17 09:21:26;;;;;;;10.53;6.07;;;13.90;99.90;;;;;;5053515;28;20175;-65
2023/02/17 09:23:52;;;;;;;7.03;5.30;;;13.90;99.90;;;;;;5053696;28;20671;-65
2023/02/17 09:26:18;;;;;;;11.97;11.03;;;14.00;99.90;;;;;;5053512;28;20186;-65
2023/02/17 09:28:46;;;;;;;13.43;12.53;;;14.00;99.90;;;;;;5053659;28;20250;-65
2023/02/17 09:31:14;;;;;;;8.60;8.03;;;14.10;99.90;;;;;;5053273;28;20209;-65
2023/02/17 09:33:41;;;;;;;8.50;7.77;;;14.20;99.90;;;;;;5053656;28;20166;-65
2023/02/17 09:36:10;;;;;;;6.73;6.33;;;14.20;99.90;;;;;;5052045;28;20198;-66
2023/02/17 09:38:38;;;;;;;11.13;10.43;;;14.30;99.90;;;;;;5052219;28;20458;-64
2023/02/17 09:41:23;;;;;;;7.70;7.10;;;14.40;99.90;;;;;;5053070;28;20193;-65
2023/02/17 09:43:50;;;;;;;6.17;5.87;;;14.50;99.90;;;;;;5053250;28;20277;-66
2023/02/17 09:47:00;;;;;;;5.77;5.30;;;14.50;99.90;;;;;;5052901;28;20233;-66
2023/02/17 09:49:31;;;;;;;6.03;5.40;;;14.60;99.90;;;;;;4991277;28;20188;-65
2023/02/17 09:52:09;;;;;;;5.23;4.83;;;14.70;99.90;;;;;;5046637;28;20694;-66
2023/02/17 09:54:42;;;;;;;6.17;5.73;;;14.90;99.90;;;;;;5053352;28;20236;-66
2023/02/17 09:57:14;;;;;;;6.67;6.03;;;14.90;99.90;;;;;;5051669;28;20202;-65
2023/02/17 09:59:49;;;;;;;5.17;4.77;;;14.90;99.90;;;;;;5052966;28;20167;-66
2023/02/17 10:02:32;;;;;;;5.87;5.47;;;15.00;99.90;;;;;;5052463;28;20247;-65
2023/02/17 10:05:04;;;;;;;10.33;7.10;;;15.20;99.90;;;;;;5052872;28;20232;-65
2023/02/17 10:07:40;;;;;;;6.20;5.70;;;15.40;99.90;;;;;;5052906;28;20265;-66
2023/02/17 10:10:14;;;;;;;8.00;6.63;;;15.70;99.90;;;;;;5052500;28;20241;-65
2023/02/17 10:12:46;;;;;;;5.00;4.70;;;15.80;99.90;;;;;;5052930;28;20166;-65
2023/02/17 10:15:17;;;;;;;5.30;4.90;;;15.90;99.90;;;;;;5052873;28;20202;-65
2023/02/17 10:17:47;;;;;;;4.37;4.07;;;15.90;99.90;;;;;;5052792;28;20195;-66
2023/02/17 10:20:19;;;;;;;5.97;4.70;;;16.00;99.90;;;;;;5052201;28;20174;-64
2023/02/17 10:22:53;;;;;;;5.87;5.47;;;16.00;99.90;;;;;;5052461;28;20170;-63
2023/02/17 10:25:32;;;;;;;5.07;4.73;;;16.00;99.90;;;;;;5052439;28;20205;-64
2023/02/17 10:28:08;;;;;;;5.93;5.53;;;16.10;99.90;;;;;;5052280;28;20167;-64
2023/02/17 10:30:39;;;;;;;4.73;4.43;;;16.30;99.90;;;;;;5052041;28;20171;-63
2023/02/17 10:33:20;;;;;;;5.13;4.77;;;16.50;99.90;;;;;;5052354;28;20644;-63
2023/02/17 10:36:09;;;;;;;7.93;6.23;;;16.60;99.90;;;;;;5052325;28;20587;-64
2023/02/17 10:38:52;;;;;;;4.93;4.50;;;16.50;99.90;;;;;;5052384;28;20186;-64
2023/02/17 10:41:27;;;;;;;5.17;4.70;;;16.50;99.90;;;;;;5051894;28;20178;-63
2023/02/17 10:43:54;;;;;;;4.20;3.90;;;16.60;99.90;;;;;;5052072;28;20202;-64
2023/02/17 10:46:27;;;;;;;6.03;5.63;;;16.60;99.90;;;;;;5051779;28;20209;-64
2023/02/17 10:48:54;;;;;;;5.83;5.53;;;16.50;99.90;;;;;;5052019;28;20170;-64
2023/02/17 10:51:24;;;;;;;5.63;5.23;;;16.50;99.90;;;;;;5052072;28;20655;-64
2023/02/17 10:54:12;;;;;;;6.13;5.63;;;16.70;99.90;;;;;;5052155;28;20688;-63
2023/02/17 10:56:43;;;;;;;9.40;9.00;;;16.70;99.90;;;;;;5051153;28;20269;-63
2023/02/17 10:59:24;;;;;;;5.27;4.63;;;16.60;99.90;;;;;;5051704;28;20634;-63
2023/02/17 11:01:50;;;;;;;4.33;4.10;;;16.50;99.90;;;;;;5051257;28;20569;-64
2023/02/17 11:04:15;;;;;;;7.73;7.33;;;16.40;99.90;;;;;;5051678;28;20195;-64
2023/02/17 11:06:50;;;;;;;5.47;5.07;;;16.40;99.90;;;;;;5051744;28;20190;-63
2023/02/17 11:09:30;;;;;;;5.30;5.00;;;16.30;99.90;;;;;;5051497;28;20179;-65
2023/02/17 11:12:13;;;;;;;6.77;6.37;;;16.10;99.90;;;;;;5051612;28;20700;-64
2023/02/17 11:14:45;;;;;;;7.57;6.23;;;15.90;99.90;;;;;;5051658;28;20170;-63
2023/02/17 11:17:23;;;;;;;14.83;8.10;;;15.70;99.90;;;;;;5051768;28;20659;-63
2023/02/17 11:20:08;;;;;;;13.97;7.70;;;15.70;99.90;;;;;;5051301;28;20207;-63
2023/02/17 11:22:39;;;;;;;7.93;7.13;;;15.70;99.90;;;;;;5051494;28;20201;-63
2023/02/17 11:25:26;;;;;;;5.03;4.73;;;15.70;99.90;;;;;;5051519;28;20879;-63
2023/02/17 11:27:56;;;;;;;6.67;6.37;;;15.80;99.90;;;;;;5051647;28;20173;-64
2023/02/17 11:30:23;;;;;;;5.00;4.70;;;15.80;99.90;;;;;;5051003;28;20262;-64
2023/02/17 11:32:49;;;;;;;4.57;4.37;;;15.90;99.90;;;;;;5049822;28;20722;-63
2023/02/17 11:35:40;;;;;;;4.60;4.37;;;16.00;99.90;;;;;;5051595;28;20171;-63
2023/02/17 11:38:18;;;;;;;4.90;4.60;;;16.00;99.90;;;;;;5044257;28;20556;-63
2023/02/17 11:41:02;;;;;;;4.43;4.13;;;16.00;99.90;;;;;;5051069;28;20179;-63
2023/02/17 11:43:29;;;;;;;4.53;4.33;;;16.20;99.90;;;;;;5051339;28;20257;-63
2023/02/17 11:46:08;;;;;;;5.03;4.73;;;16.30;99.90;;;;;;5051525;28;20206;-63
2023/02/17 11:48:36;;;;;;;5.37;5.07;;;16.50;99.90;;;;;;5051275;28;20173;-64
2023/02/17 11:51:35;;;;;;;8.57;8.07;;;16.60;99.90;;;;;;5050908;28;20171;-63
2023/02/17 11:54:29;;;;;;;6.03;5.63;;;16.80;99.90;;;;;;5027641;28;20186;-64
2023/02/17 11:57:01;;;;;;;4.43;4.20;;;16.80;99.90;;;;;;5050912;28;20564;-64
2023/02/17 11:59:34;;;;;;;5.67;4.13;;;16.70;99.90;;;;;;5050993;28;20855;-64
2023/02/17 12:02:12;;;;;;;4.87;4.47;;;16.70;99.90;;;;;;5050562;28;20174;-64
2023/02/17 12:04:40;;;;;;;12.70;12.13;;;16.60;99.90;;;;;;5051108;28;20255;-65
2023/02/17 12:07:35;;;;;;;4.40;4.03;;;16.50;99.90;;;;;;5050910;28;20187;-64
2023/02/17 12:10:09;;;;;;;6.10;5.60;;;16.50;99.90;;;;;;5050823;28;20159;-64
2023/02/17 12:12:57;;;;;;;5.27;4.87;;;16.80;99.90;;;;;;5050912;28;20716;-64
2023/02/17 12:15:39;;;;;;;6.83;6.40;;;17.00;99.90;;;;;;5050977;28;20551;-64
2023/02/17 12:18:40;;;;;;;24.90;23.57;;;17.00;99.90;;;;;;5051359;28;20666;-64
2023/02/17 12:21:42;;;;;;;8.87;8.47;;;16.80;99.90;;;;;;5050731;28;20174;-64
2023/02/17 12:24:19;;;;;;;3.70;3.53;;;16.70;99.90;;;;;;5051011;28;20655;-65
2023/02/17 12:26:48;;;;;;;18.00;17.13;;;17.00;99.90;;;;;;5051040;28;20452;-65
2023/02/17 12:29:25;;;;;;;5.17;4.77;;;17.30;99.90;;;;;;5050782;28;20171;-65
2023/02/17 12:31:59;;;;;;;4.53;4.23;;;17.60;99.90;;;;;;5050779;28;20170;-64
2023/02/17 12:34:34;;;;;;;4.27;4.07;;;17.70;99.90;;;;;;5049468;28;20256;-64
2023/02/17 12:37:00;;;;;;;4.70;4.40;;;17.70;99.90;;;;;;5050783;28;20727;-64
2023/02/17 12:39:33;;;;;;;5.23;5.03;;;17.30;99.90;;;;;;5050526;28;20228;-65
2023/02/17 12:42:20;;;;;;;14.40;13.67;;;17.20;99.90;;;;;;5050672;28;20167;-65
2023/02/17 12:44:52;;;;;;;15.27;14.47;;;17.00;99.90;;;;;;5050761;28;20190;-65
2023/02/17 12:47:31;;;;;;;7.60;7.20;;;16.90;99.90;;;;;;5054100;28;20198;-64
2023/02/17 12:50:02;;;;;;;5.17;4.67;;;17.10;99.90;;;;;;5054102;28;20171;-65
2023/02/17 12:52:31;;;;;;;4.77;4.53;;;17.40;99.90;;;;;;5054264;28;20532;-65
2023/02/17 12:55:11;;;;;;;7.63;7.27;;;17.50;99.90;;;;;;5054186;28;20293;-65
2023/02/17 12:57:59;;;;;;;4.80;4.50;;;17.60;99.90;;;;;;5054256;28;20195;-65
2023/02/17 13:00:56;;;;;;;17.67;16.83;;;17.70;99.90;;;;;;5052989;28;20452;-65
2023/02/17 13:03:21;;;;;;;7.57;4.67;;;17.70;99.90;;;;;;5039926;28;20194;-65
2023/02/17 13:06:22;;;;;;;4.73;4.43;;;17.40;99.90;;;;;;5054030;28;20191;-65